createdAt,value
2019-05-13T00:00:11.171Z,100709.73
2019-05-13T00:00:47.045Z,100707.53
2019-05-13T00:01:23.772Z,100716.34
2019-05-13T00:02:04.634Z,100719.72
2019-05-13T00:02:40.824Z,100719.34
2019-05-13T00:03:16.797Z,100725.67
2019-05-13T00:03:54.200Z,100732.57
2019-05-13T00:04:30.247Z,100717.92
2019-05-13T00:05:06.451Z,100723.68
2019-05-13T00:05:44.587Z,100729.23
2019-05-13T00:06:20.041Z,100729.18
2019-05-13T00:06:57.714Z,100716.73
2019-05-13T00:07:34.294Z,100731.10
2019-05-13T00:08:10.269Z,100728.06
2019-05-13T00:08:48.147Z,100727.05
2019-05-13T00:09:24.578Z,100727.05
2019-05-13T00:10:00.568Z,100730.98
2019-05-13T00:10:36.463Z,100729.75
2019-05-13T00:11:13.618Z,100729.75
2019-05-13T00:11:54.067Z,100729.69
2019-05-13T00:12:50.406Z,100731.80
2019-05-13T00:13:26.411Z,100739.67
2019-05-13T00:14:04.261Z,100739.67
2019-05-13T00:14:39.995Z,100731.97
2019-05-13T00:15:16.395Z,100731.97
2019-05-13T00:15:54.396Z,100744.49
2019-05-13T00:16:30.287Z,100744.49
2019-05-13T00:17:06.307Z,100736.42
2019-05-13T00:17:44.564Z,100745.66
2019-05-13T00:18:20.772Z,100746.66
2019-05-13T00:18:59.479Z,100748.73
2019-05-13T00:19:35.369Z,100748.73
2019-05-13T00:22:18.467Z,100748.02
2019-05-13T00:22:54.389Z,100753.41
2019-05-13T00:23:33.942Z,100753.41
2019-05-13T00:24:09.789Z,100752.01
2019-05-13T00:24:45.743Z,100768.09
2019-05-13T00:25:24.069Z,100765.30
2019-05-13T00:26:07.596Z,100762.00
2019-05-13T00:26:44.411Z,100765.70
2019-05-13T00:27:20.808Z,100768.30
2019-05-13T00:27:56.749Z,100773.08
2019-05-13T00:28:34.267Z,100775.77
2019-05-13T00:29:10.402Z,100780.58
2019-05-13T00:29:46.273Z,100781.08
2019-05-13T00:30:23.511Z,100784.28
2019-05-13T00:30:59.787Z,100774.30
2019-05-13T00:31:36.400Z,100772.70
2019-05-13T00:32:13.501Z,100784.66
2019-05-13T00:32:50.669Z,100775.73
2019-05-13T00:33:26.554Z,100789.97
2019-05-13T00:34:03.684Z,100792.06
2019-05-13T00:34:39.869Z,100798.76
2019-05-13T00:35:15.955Z,100795.69
2019-05-13T00:35:53.410Z,100796.67
2019-05-13T00:36:29.687Z,100802.29
2019-05-13T00:37:10.808Z,100799.77
2019-05-13T00:37:44.234Z,100804.85
2019-05-13T00:38:20.477Z,100805.88
2019-05-13T00:38:56.388Z,100804.95
2019-05-13T00:39:33.620Z,100800.52
2019-05-13T00:40:09.842Z,100800.95
2019-05-13T00:40:45.854Z,100796.55
2019-05-13T00:41:21.675Z,100799.63
2019-05-13T00:41:57.587Z,100801.48
2019-05-13T00:42:35.750Z,100806.53
2019-05-13T00:43:14.040Z,100804.56
2019-05-13T00:43:49.297Z,100804.19
2019-05-13T00:44:25.257Z,100808.16
2019-05-13T00:45:03.849Z,100810.74
2019-05-13T00:45:38.898Z,100807.13
2019-05-13T00:46:14.724Z,100813.54
2019-05-13T00:46:50.622Z,100810.77
2019-05-13T00:47:26.552Z,100812.85
2019-05-13T00:48:04.465Z,100813.37
2019-05-13T00:48:40.262Z,100817.06
2019-05-13T00:49:16.196Z,100815.64
2019-05-13T00:49:54.059Z,100811.20
2019-05-13T00:50:30.002Z,100816.31
2019-05-13T00:51:05.890Z,100818.89
2019-05-13T00:51:44.222Z,100819.38
2019-05-13T00:52:23.567Z,100817.19
2019-05-13T00:52:59.677Z,100820.63
2019-05-13T00:53:38.016Z,100815.63
2019-05-13T00:54:13.853Z,100812.84
2019-05-13T00:54:49.746Z,100814.69
2019-05-13T00:55:25.697Z,100813.81
2019-05-13T00:56:03.887Z,100813.43
2019-05-13T00:56:39.314Z,100817.22
2019-05-13T00:57:15.201Z,100816.63
2019-05-13T00:57:51.092Z,100814.40
2019-05-13T00:58:26.934Z,100817.59
2019-05-13T00:59:03.682Z,100816.17
2019-05-13T00:59:39.694Z,100819.61
2019-05-13T01:00:16.211Z,100822.50
2019-05-13T01:00:54.427Z,100822.43
2019-05-13T01:01:29.791Z,100827.47
2019-05-13T01:02:05.843Z,100820.92
2019-05-13T01:02:44.336Z,100823.05
2019-05-13T01:03:19.381Z,100824.09
2019-05-13T01:03:55.285Z,100825.38
2019-05-13T01:04:31.178Z,100822.58
2019-05-13T01:05:07.232Z,100816.83
2019-05-13T01:05:44.570Z,100818.99
2019-05-13T01:06:20.709Z,100814.61
2019-05-13T01:06:56.597Z,100812.20
2019-05-13T01:07:34.160Z,100816.20
2019-05-13T01:08:10.135Z,100816.37
2019-05-13T01:08:46.041Z,100817.41
2019-05-13T01:09:25.991Z,100819.25
2019-05-13T01:10:04.022Z,100826.29
2019-05-13T01:10:39.541Z,100821.53
2019-05-13T01:11:15.409Z,100826.36
2019-05-13T01:11:53.531Z,100825.17
2019-05-13T01:12:29.030Z,100825.58
2019-05-13T01:13:06.128Z,100821.91
2019-05-13T01:13:43.360Z,100826.98
2019-05-13T01:14:20.839Z,100826.58
2019-05-13T01:14:56.741Z,100825.47
2019-05-13T01:15:34.337Z,100827.55
2019-05-13T01:16:10.653Z,100822.59
2019-05-13T01:16:46.662Z,100825.16
2019-05-13T01:17:23.519Z,100826.67
2019-05-13T01:17:59.611Z,100822.27
2019-05-13T01:18:35.545Z,100825.74
2019-05-13T01:19:11.438Z,100823.50
2019-05-13T01:19:47.311Z,100829.66
2019-05-13T01:20:23.979Z,100815.19
2019-05-13T01:20:59.917Z,100824.89
2019-05-13T01:21:35.776Z,100821.53
2019-05-13T01:22:13.487Z,100825.12
2019-05-13T01:22:49.524Z,100823.63
2019-05-13T01:23:26.076Z,100826.83
2019-05-13T01:24:03.677Z,100820.27
2019-05-13T01:24:40.515Z,100819.63
2019-05-13T01:25:16.498Z,100827.61
2019-05-13T01:25:54.496Z,100824.58
2019-05-13T01:26:30.115Z,100826.49
2019-05-13T01:27:06.012Z,100826.97
2019-05-13T01:27:43.993Z,100833.39
2019-05-13T01:28:19.558Z,100828.67
2019-05-13T01:28:55.506Z,100830.09
2019-05-13T01:29:31.413Z,100831.70
2019-05-13T01:30:07.762Z,100823.53
2019-05-13T01:30:44.074Z,100827.30
2019-05-13T01:31:20.045Z,100825.05
2019-05-13T01:31:55.891Z,100823.86
2019-05-13T01:32:34.181Z,100813.69
2019-05-13T01:33:09.752Z,100817.39
2019-05-13T01:33:45.725Z,100815.70
2019-05-13T01:34:23.618Z,100822.42
2019-05-13T01:34:59.318Z,100818.41
2019-05-13T01:35:35.270Z,100823.43
2019-05-13T01:36:13.254Z,100822.55
2019-05-13T01:36:49.071Z,100820.06
2019-05-13T01:37:39.207Z,100821.66
2019-05-13T01:38:04.586Z,100826.24
2019-05-13T01:38:40.343Z,100823.10
2019-05-13T01:39:16.246Z,100826.12
2019-05-13T01:39:54.034Z,100823.87
2019-05-13T01:40:29.923Z,100821.29
2019-05-13T01:41:05.876Z,100827.30
2019-05-13T01:43:26.124Z,100834.45
2019-05-13T01:44:03.990Z,100832.44
2019-05-13T01:44:39.700Z,100834.98
2019-05-13T01:45:15.711Z,100828.64
2019-05-13T01:45:53.682Z,100828.45
2019-05-13T01:46:34.528Z,100828.27
2019-05-13T01:47:10.057Z,100831.95
2019-05-13T01:47:46.024Z,100832.23
2019-05-13T01:48:23.887Z,100832.05
2019-05-13T01:48:59.745Z,100835.70
2019-05-13T01:49:35.670Z,100835.31
2019-05-13T01:50:14.019Z,100828.97
2019-05-13T01:50:49.415Z,100833.55
2019-05-13T01:51:25.409Z,100831.20
2019-05-13T01:52:03.875Z,100835.32
2019-05-13T01:52:38.959Z,100832.03
2019-05-13T01:53:14.813Z,100833.63
2019-05-13T01:53:50.693Z,100826.38
2019-05-13T01:54:26.697Z,100827.24
2019-05-13T01:55:04.054Z,100831.00
2019-05-13T01:55:40.102Z,100826.48
2019-05-13T01:56:16.076Z,100825.11
2019-05-13T01:56:53.512Z,100829.17
2019-05-13T01:57:29.525Z,100829.87
2019-05-13T01:58:05.554Z,100832.50
2019-05-13T01:58:41.452Z,100826.38
2019-05-13T01:59:17.317Z,100827.20
2019-05-13T01:59:53.898Z,100827.50
2019-05-13T02:00:29.934Z,100825.49
2019-05-13T02:01:05.865Z,100825.06
2019-05-13T02:01:44.063Z,100827.81
2019-05-13T02:02:19.597Z,100825.20
2019-05-13T02:02:55.478Z,100824.92
2019-05-13T02:03:33.638Z,100827.21
2019-05-13T02:04:09.164Z,100825.41
2019-05-13T02:04:45.057Z,100824.06
2019-05-13T02:05:21.067Z,100823.42
2019-05-13T02:05:57.022Z,100825.13
2019-05-13T02:06:33.581Z,100826.38
2019-05-13T02:07:09.749Z,100831.84
2019-05-13T02:07:59.667Z,100824.45
2019-05-13T02:08:25.885Z,100822.89
2019-05-13T02:09:03.837Z,100824.92
2019-05-13T02:09:39.671Z,100820.03
2019-05-13T02:10:18.210Z,100817.34
2019-05-13T02:10:55.337Z,100814.27
2019-05-13T02:11:33.998Z,100820.59
2019-05-13T02:12:09.187Z,100817.33
2019-05-13T02:12:45.157Z,100812.96
2019-05-13T02:13:21.056Z,100817.80
2019-05-13T02:13:56.997Z,100819.11
2019-05-13T02:14:34.355Z,100815.16
2019-05-13T02:15:10.414Z,100817.22
2019-05-13T02:15:46.311Z,100815.53
2019-05-13T02:16:24.256Z,100815.69
2019-05-13T02:16:59.882Z,100813.76
2019-05-13T02:17:35.789Z,100808.08
2019-05-13T02:18:13.455Z,100799.59
2019-05-13T02:18:49.413Z,100805.39
2019-05-13T02:19:25.331Z,100805.97
2019-05-13T02:20:03.700Z,100799.41
2019-05-13T02:20:38.832Z,100801.34
2019-05-13T02:21:14.766Z,100804.66
2019-05-13T02:21:50.888Z,100801.70
2019-05-13T02:22:29.939Z,100807.62
2019-05-13T02:23:06.163Z,100798.06
2019-05-13T02:23:44.293Z,100804.35
2019-05-13T02:24:20.186Z,100804.23
2019-05-13T02:24:56.133Z,100804.95
2019-05-13T02:25:34.049Z,100803.70
2019-05-13T02:26:09.771Z,100808.83
2019-05-13T02:26:47.977Z,100802.67
2019-05-13T02:27:25.504Z,100807.48
2019-05-13T02:28:09.115Z,100801.20
2019-05-13T02:28:39.232Z,100802.48
2019-05-13T02:29:15.203Z,100804.52
2019-05-13T02:29:51.102Z,100807.58
2019-05-13T02:30:27.161Z,100804.73
2019-05-13T02:31:03.252Z,100811.52
2019-05-13T02:31:46.480Z,100802.95
2019-05-13T02:32:16.917Z,100806.87
2019-05-13T02:32:53.190Z,100804.50
2019-05-13T02:33:29.228Z,100802.97
2019-05-13T02:34:05.110Z,100802.33
2019-05-13T02:34:43.707Z,100803.85
2019-05-13T02:35:18.680Z,100800.94
2019-05-13T02:35:54.629Z,100802.04
2019-05-13T02:36:33.044Z,100800.04
2019-05-13T02:37:08.437Z,100800.95
2019-05-13T02:37:44.307Z,100798.52
2019-05-13T02:38:26.325Z,100794.28
2019-05-13T02:38:57.916Z,100795.02
2019-05-13T02:39:33.843Z,100803.81
2019-05-13T02:40:13.147Z,100793.06
2019-05-13T02:40:47.448Z,100794.25
2019-05-13T02:41:23.343Z,100792.32
2019-05-13T02:42:03.010Z,100795.68
2019-05-13T02:42:37.076Z,100799.13
2019-05-13T02:43:13.752Z,100794.84
2019-05-13T02:43:52.555Z,100794.13
2019-05-13T02:44:27.459Z,100797.18
2019-05-13T02:45:03.942Z,100790.38
2019-05-13T02:45:42.858Z,100798.63
2019-05-13T02:46:18.905Z,100791.61
2019-05-13T02:46:54.852Z,100792.11
2019-05-13T02:47:33.562Z,100793.87
2019-05-13T02:48:12.561Z,100797.30
2019-05-13T02:48:47.946Z,100796.72
2019-05-13T02:49:23.825Z,100796.08
2019-05-13T02:50:03.878Z,100795.23
2019-05-13T02:50:44.186Z,100792.55
2019-05-13T02:51:18.989Z,100790.08
2019-05-13T02:51:55.087Z,100788.89
2019-05-13T02:52:33.462Z,100790.61
2019-05-13T02:53:08.875Z,100798.81
2019-05-13T02:53:52.259Z,100789.30
2019-05-13T02:54:27.163Z,100792.72
2019-05-13T02:55:03.916Z,100791.70
2019-05-13T02:55:43.452Z,100792.99
2019-05-13T02:56:17.930Z,100793.23
2019-05-13T02:56:53.819Z,100794.63
2019-05-13T02:57:32.800Z,100792.36
2019-05-13T02:58:07.523Z,100793.95
2019-05-13T03:01:04.117Z,100795.81
2019-05-13T03:01:43.026Z,100796.30
2019-05-13T03:02:17.877Z,100788.36
2019-05-13T03:02:53.743Z,100792.23
2019-05-13T03:03:32.560Z,100787.89
2019-05-13T03:04:07.319Z,100790.41
2019-05-13T03:04:43.623Z,100793.36
2019-05-13T03:05:21.962Z,100789.94
2019-05-13T03:05:57.454Z,100785.39
2019-05-13T03:06:43.520Z,100785.96
2019-05-13T03:07:23.025Z,100787.21
2019-05-13T03:07:57.567Z,100787.66
2019-05-13T03:08:43.827Z,100788.80
2019-05-13T03:09:12.711Z,100788.34
2019-05-13T03:09:52.701Z,100791.53
2019-05-13T03:10:28.892Z,100790.61
2019-05-13T03:11:04.763Z,100795.56
2019-05-13T03:11:42.339Z,100789.17
2019-05-13T03:12:18.405Z,100783.03
2019-05-13T03:12:54.298Z,100790.55
2019-05-13T03:13:32.747Z,100786.45
2019-05-13T03:14:07.950Z,100786.69
2019-05-13T03:14:47.932Z,100783.05
2019-05-13T03:15:23.104Z,100783.72
2019-05-13T03:16:27.442Z,100783.72
2019-05-13T03:17:14.641Z,100783.95
2019-05-13T03:18:13.292Z,100789.33
2019-05-13T03:18:46.687Z,100790.16
2019-05-13T03:19:25.245Z,100783.78
2019-05-13T03:20:04.149Z,100784.01
2019-05-13T03:20:39.466Z,100782.98
2019-05-13T03:21:15.501Z,100781.76
2019-05-13T03:21:52.510Z,100787.45
2019-05-13T03:22:28.795Z,100782.89
2019-05-13T03:23:04.777Z,100778.67
2019-05-13T03:23:43.998Z,100779.02
2019-05-13T03:24:22.409Z,100772.18
2019-05-13T03:24:56.949Z,100770.38
2019-05-13T03:25:33.348Z,100775.36
2019-05-13T03:26:12.661Z,100768.55
2019-05-13T03:26:47.222Z,100766.95
2019-05-13T03:27:25.231Z,100764.67
2019-05-13T03:28:03.272Z,100757.84
2019-05-13T03:28:38.777Z,100753.52
2019-05-13T03:29:14.732Z,100755.78
2019-05-13T03:29:53.349Z,100757.16
2019-05-13T03:30:28.448Z,100758.63
2019-05-13T03:31:07.290Z,100752.95
2019-05-13T03:31:46.225Z,100756.70
2019-05-13T03:32:25.741Z,100754.88
2019-05-13T03:33:02.049Z,100756.02
2019-05-13T03:33:37.576Z,100750.11
2019-05-13T03:34:15.767Z,100750.91
2019-05-13T03:34:56.046Z,100755.80
2019-05-13T03:35:28.397Z,100750.20
2019-05-13T03:36:06.651Z,100745.99
2019-05-13T03:36:46.130Z,100753.28
2019-05-13T03:37:26.028Z,100754.64
2019-05-13T03:37:59.035Z,100750.31
2019-05-13T03:38:54.796Z,100746.45
2019-05-13T03:39:16.396Z,100747.81
2019-05-13T03:39:52.312Z,100747.36
2019-05-13T03:40:32.820Z,100749.41
2019-05-13T03:41:22.566Z,100744.86
2019-05-13T03:46:08.508Z,100734.83
2019-05-13T03:46:44.370Z,100745.87
2019-05-13T03:47:23.019Z,100743.94
2019-05-13T03:47:59.574Z,100739.73
2019-05-13T03:48:36.749Z,100744.86
2019-05-13T03:49:14.390Z,100739.83
2019-05-13T03:49:54.796Z,100740.97
2019-05-13T03:50:34.416Z,100735.05
2019-05-13T03:51:12.911Z,100742.11
2019-05-13T03:51:53.206Z,100733.69
2019-05-13T03:52:27.888Z,100739.83
2019-05-13T03:53:03.799Z,100739.03
2019-05-13T03:53:42.946Z,100736.87
2019-05-13T03:54:17.399Z,100737.20
2019-05-13T03:54:53.417Z,100738.03
2019-05-13T03:55:32.544Z,100735.41
2019-05-13T03:56:07.728Z,100738.48
2019-05-13T03:56:43.592Z,100735.53
2019-05-13T03:57:23.067Z,100738.46
2019-05-13T03:57:58.035Z,100732.57
2019-05-13T03:58:34.143Z,100729.84
2019-05-13T03:59:13.125Z,100726.64
2019-05-13T03:59:47.733Z,100732.79
2019-05-13T04:00:23.917Z,100731.87
2019-05-13T04:01:02.903Z,100740.89
2019-05-13T04:01:37.717Z,100735.06
2019-05-13T04:02:13.672Z,100733.13
2019-05-13T04:02:52.148Z,100730.97
2019-05-13T04:03:27.645Z,100737.33
2019-05-13T04:04:06.433Z,100739.16
2019-05-13T04:04:42.595Z,100737.34
2019-05-13T04:05:18.530Z,100734.61
2019-05-13T04:05:54.836Z,100738.71
2019-05-13T04:06:32.351Z,100732.11
2019-05-13T04:07:08.453Z,100736.43
2019-05-13T04:07:44.357Z,100736.20
2019-05-13T04:08:22.782Z,100739.16
2019-05-13T04:09:17.085Z,100734.39
2019-05-13T04:09:36.797Z,100738.50
2019-05-13T04:10:13.350Z,100739.41
2019-05-13T04:10:52.507Z,100734.83
2019-05-13T04:11:28.732Z,100735.95
2019-05-13T04:12:04.599Z,100737.55
2019-05-13T04:12:42.585Z,100734.73
2019-05-13T04:13:18.492Z,100732.09
2019-05-13T04:13:57.546Z,100734.39
2019-05-13T04:14:34.018Z,100728.47
2019-05-13T04:15:12.600Z,100722.30
2019-05-13T04:15:48.362Z,100729.35
2019-05-13T04:16:32.295Z,100728.33
2019-05-13T04:17:07.532Z,100726.74
2019-05-13T04:17:44.624Z,100727.55
2019-05-13T04:18:23.372Z,100728.42
2019-05-13T04:18:58.253Z,100723.88
2019-05-13T04:19:34.479Z,100728.68
2019-05-13T04:20:12.553Z,100728.67
2019-05-13T04:20:48.452Z,100730.95
2019-05-13T04:21:25.814Z,100728.02
2019-05-13T04:22:02.407Z,100728.57
2019-05-13T04:22:38.600Z,100730.30
2019-05-13T04:23:14.510Z,100733.02
2019-05-13T04:23:53.009Z,100729.14
2019-05-13T04:24:28.881Z,100730.73
2019-05-13T04:25:06.094Z,100727.07
2019-05-13T04:25:44.865Z,100726.64
2019-05-13T04:26:24.000Z,100720.02
2019-05-13T04:27:02.793Z,100724.04
2019-05-13T04:27:37.953Z,100716.39
2019-05-13T04:28:13.800Z,100712.55
2019-05-13T04:28:52.872Z,100712.99
2019-05-13T04:29:28.923Z,100712.19
2019-05-13T04:30:05.037Z,100708.66
2019-05-13T04:30:43.528Z,100714.57
2019-05-13T04:31:22.774Z,100718.20
2019-05-13T04:31:57.533Z,100724.34
2019-05-13T04:32:33.781Z,100722.99
2019-05-13T04:33:12.957Z,100723.22
2019-05-13T04:33:48.327Z,100719.91
2019-05-13T04:35:28.892Z,100721.73
2019-05-13T04:36:05.003Z,100719.33
2019-05-13T04:36:43.051Z,100713.19
2019-05-13T04:37:22.077Z,100715.47
2019-05-13T04:38:02.447Z,100715.71
2019-05-13T04:38:37.421Z,100714.66
2019-05-13T04:39:14.081Z,100709.55
2019-05-13T04:39:56.385Z,100713.45
2019-05-13T04:40:33.174Z,100713.98
2019-05-13T04:41:11.123Z,100714.77
2019-05-13T04:41:46.596Z,100716.11
2019-05-13T04:42:23.285Z,100714.33
2019-05-13T04:43:02.611Z,100715.09
2019-05-13T04:43:37.098Z,100715.13
2019-05-13T04:44:13.350Z,100720.12
2019-05-13T04:44:49.347Z,100712.00
2019-05-13T04:45:25.381Z,100711.63
2019-05-13T04:46:02.512Z,100717.38
2019-05-13T04:46:38.810Z,100711.41
2019-05-13T04:47:18.652Z,100707.27
2019-05-13T04:47:54.531Z,100703.11
2019-05-13T04:48:34.039Z,100706.06
2019-05-13T04:49:12.570Z,100707.53
2019-05-13T04:49:47.777Z,100704.48
2019-05-13T04:50:26.152Z,100704.31
2019-05-13T04:51:03.221Z,100700.67
2019-05-13T04:51:42.107Z,100701.35
2019-05-13T04:52:17.273Z,100699.27
2019-05-13T04:52:56.226Z,100696.25
2019-05-13T04:53:33.432Z,100698.01
2019-05-13T04:54:12.769Z,100697.78
2019-05-13T04:55:22.887Z,100695.06
2019-05-13T04:55:58.790Z,100699.08
2019-05-13T04:56:34.773Z,100693.30
2019-05-13T04:57:12.338Z,100693.91
2019-05-13T04:57:48.655Z,100692.99
2019-05-13T04:58:24.736Z,100696.33
2019-05-13T04:59:02.967Z,100689.07
2019-05-13T04:59:41.329Z,100688.61
2019-05-13T05:00:17.697Z,100688.62
2019-05-13T05:01:32.213Z,100684.87
2019-05-13T05:02:51.297Z,100685.00
2019-05-13T05:03:41.254Z,100677.54
2019-05-13T05:04:55.067Z,100681.31
2019-05-13T05:05:54.023Z,100682.72
2019-05-13T05:06:57.584Z,100682.70
2019-05-13T05:07:43.974Z,100675.42
2019-05-13T05:09:03.052Z,100682.00
2019-05-13T05:10:17.739Z,100672.69
2019-05-13T05:11:05.200Z,100671.19
2019-05-13T05:12:15.443Z,100676.47
2019-05-13T05:13:18.484Z,100676.91
2019-05-13T05:14:32.683Z,100668.98
2019-05-13T05:15:47.222Z,100671.55
2019-05-13T05:17:03.570Z,100666.85
2019-05-13T05:18:11.629Z,100667.45
2019-05-13T05:19:26.542Z,100661.36
2019-05-13T05:20:23.887Z,100664.59
2019-05-13T05:21:11.934Z,100663.28
2019-05-13T05:22:02.913Z,100660.03
2019-05-13T05:23:16.334Z,100661.37
2019-05-13T05:24:38.446Z,100658.38
2019-05-13T05:25:34.649Z,100661.90
2019-05-13T05:26:27.865Z,100662.81
2019-05-13T05:28:02.233Z,100656.50
2019-05-13T05:29:11.457Z,100654.86
2019-05-13T05:29:58.305Z,100653.00
2019-05-13T05:31:14.301Z,100647.81
2019-05-13T05:32:18.161Z,100648.80
2019-05-13T05:33:05.545Z,100640.73
2019-05-13T05:34:21.893Z,100633.09
2019-05-13T05:35:45.865Z,100636.22
2019-05-13T05:36:44.167Z,100633.41
2019-05-13T05:37:35.521Z,100631.44
2019-05-13T05:38:43.245Z,100630.41
2019-05-13T05:39:24.535Z,100629.70
2019-05-13T05:40:01.927Z,100632.80
2019-05-13T05:40:39.613Z,100629.61
2019-05-13T05:41:18.253Z,100623.22
2019-05-13T05:41:56.381Z,100625.84
2019-05-13T05:42:33.760Z,100621.77
2019-05-13T05:43:11.588Z,100628.09
2019-05-13T05:43:48.407Z,100626.50
2019-05-13T05:44:24.861Z,100630.58
2019-05-13T05:45:02.901Z,100625.79
2019-05-13T05:45:41.848Z,100625.79
2019-05-13T05:46:21.848Z,100620.34
2019-05-13T05:47:02.156Z,100617.63
2019-05-13T05:47:38.219Z,100617.39
2019-05-13T05:48:17.528Z,100619.08
2019-05-13T05:48:54.948Z,100617.16
2019-05-13T05:49:31.998Z,100611.81
2019-05-13T05:50:08.444Z,100620.28
2019-05-13T05:50:44.942Z,100612.13
2019-05-13T05:51:22.235Z,100611.81
2019-05-13T05:52:06.251Z,100609.73
2019-05-13T05:52:45.410Z,100612.84
2019-05-13T05:53:22.911Z,100612.05
2019-05-13T05:54:02.363Z,100614.67
2019-05-13T05:54:38.898Z,100611.64
2019-05-13T05:55:14.772Z,100615.39
2019-05-13T05:55:52.284Z,100613.38
2019-05-13T05:56:32.520Z,100612.50
2019-05-13T05:57:09.142Z,100612.97
2019-05-13T05:57:45.268Z,100612.59
2019-05-13T05:58:22.836Z,100614.74
2019-05-13T05:59:02.734Z,100616.30
2019-05-13T05:59:38.882Z,100612.21
2019-05-13T06:00:14.996Z,100611.51
2019-05-13T06:00:52.472Z,100614.70
2019-05-13T06:01:28.419Z,100611.76
2019-05-13T06:02:04.400Z,100610.52
2019-05-13T06:02:42.731Z,100613.47
2019-05-13T06:03:21.910Z,100611.98
2019-05-13T06:04:01.538Z,100608.63
2019-05-13T06:04:37.793Z,100606.70
2019-05-13T06:05:13.810Z,100605.12
2019-05-13T06:05:51.271Z,100601.98
2019-05-13T06:06:27.205Z,100603.93
2019-05-13T06:07:03.788Z,100598.26
2019-05-13T06:07:42.156Z,100593.19
2019-05-13T06:08:18.168Z,100594.58
2019-05-13T06:08:54.123Z,100593.25
2019-05-13T06:09:32.243Z,100597.22
2019-05-13T06:10:08.742Z,100597.11
2019-05-13T06:10:50.078Z,100600.98
2019-05-13T06:11:22.801Z,100598.70
2019-05-13T06:11:58.737Z,100598.25
2019-05-13T06:12:34.914Z,100600.52
2019-05-13T06:13:12.203Z,100599.87
2019-05-13T06:13:52.187Z,100597.95
2019-05-13T06:14:27.051Z,100598.50
2019-05-13T06:15:03.140Z,100594.62
2019-05-13T06:15:39.129Z,100593.52
2019-05-13T06:16:15.164Z,100595.55
2019-05-13T06:16:51.847Z,100594.62
2019-05-13T06:17:27.920Z,100589.03
2019-05-13T06:18:03.931Z,100589.04
2019-05-13T06:18:41.522Z,100597.57
2019-05-13T06:19:18.122Z,100588.90
2019-05-13T06:19:54.157Z,100591.97
2019-05-13T06:20:31.687Z,100592.99
2019-05-13T06:21:07.795Z,100589.77
2019-05-13T06:21:43.792Z,100594.28
2019-05-13T06:22:21.640Z,100592.91
2019-05-13T06:22:57.451Z,100594.26
2019-05-13T06:23:33.372Z,100589.33
2019-05-13T06:24:11.596Z,100582.50
2019-05-13T06:24:48.203Z,100586.23
2019-05-13T06:25:24.105Z,100581.88
2019-05-13T06:26:01.947Z,100575.02
2019-05-13T06:26:38.059Z,100575.00
2019-05-13T06:27:14.027Z,100577.14
2019-05-13T06:27:51.237Z,100571.90
2019-05-13T06:28:27.230Z,100563.91
2019-05-13T06:29:03.105Z,100567.41
2019-05-13T06:29:38.969Z,100566.25
2019-05-13T06:30:15.223Z,100569.88
2019-05-13T06:30:53.323Z,100567.59
2019-05-13T06:31:29.195Z,100571.41
2019-05-13T06:32:18.154Z,100567.09
2019-05-13T06:32:43.028Z,100568.45
2019-05-13T06:33:21.152Z,100568.98
2019-05-13T06:33:57.248Z,100564.91
2019-05-13T06:34:36.230Z,100565.80
2019-05-13T06:35:12.170Z,100565.00
2019-05-13T06:35:48.082Z,100560.23
2019-05-13T06:36:23.969Z,100560.23
2019-05-13T06:37:01.761Z,100560.45
2019-05-13T06:37:37.657Z,100557.97
2019-05-13T06:38:16.589Z,100559.09
2019-05-13T06:38:52.594Z,100556.14
2019-05-13T06:39:28.455Z,100550.47
2019-05-13T06:40:04.434Z,100548.87
2019-05-13T06:40:42.397Z,100545.02
2019-05-13T06:41:18.049Z,100547.97
2019-05-13T06:41:53.910Z,100546.81
2019-05-13T06:42:32.270Z,100552.72
2019-05-13T06:43:07.505Z,100545.13
2019-05-13T06:43:43.517Z,100547.84
2019-05-13T06:44:21.493Z,100544.55
2019-05-13T06:45:01.948Z,100541.27
2019-05-13T06:45:37.733Z,100543.42
2019-05-13T06:46:13.681Z,100541.16
2019-05-13T06:46:51.668Z,100539.14
2019-05-13T06:47:27.225Z,100536.08
2019-05-13T06:48:04.282Z,100540.02
2019-05-13T06:48:41.432Z,100531.65
2019-05-13T06:49:17.529Z,100528.21
2019-05-13T06:49:59.232Z,100527.66
2019-05-13T06:50:35.470Z,100526.67
2019-05-13T06:56:38.959Z,100514.75
2019-05-13T06:57:17.684Z,100512.25
2019-05-13T06:57:53.901Z,100510.55
2019-05-13T06:58:32.505Z,100508.16
2019-05-13T06:59:08.964Z,100508.81
2019-05-13T07:01:43.405Z,100509.59
2019-05-13T07:02:21.578Z,100509.24
2019-05-13T07:03:02.298Z,100507.96
2019-05-13T07:03:47.878Z,100511.91
2019-05-13T07:04:24.025Z,100510.98
2019-05-13T07:05:02.329Z,100503.83
2019-05-13T07:05:37.577Z,100503.94
2019-05-13T07:06:13.609Z,100501.89
2019-05-13T07:06:56.040Z,100503.08
2019-05-13T07:07:31.705Z,100501.98
2019-05-13T07:08:07.196Z,100495.44
2019-05-13T07:08:43.920Z,100497.03
2019-05-13T07:09:21.599Z,100497.94
2019-05-13T07:09:59.055Z,100494.72
2019-05-13T07:10:35.008Z,100494.72
2019-05-13T07:11:18.507Z,100497.89
2019-05-13T07:11:48.805Z,100492.67
2019-05-13T07:12:24.954Z,100491.13
2019-05-13T07:13:02.184Z,100490.01
2019-05-13T07:13:42.287Z,100485.71
2019-05-13T07:14:18.257Z,100482.77
2019-05-13T07:14:57.372Z,100488.20
2019-05-13T07:15:36.216Z,100479.56
2019-05-13T07:16:12.194Z,100482.06
2019-05-13T07:16:48.169Z,100483.42
2019-05-13T07:17:24.183Z,100480.19
2019-05-13T07:18:02.334Z,100477.44
2019-05-13T07:18:37.847Z,100476.96
2019-05-13T07:19:13.715Z,100479.22
2019-05-13T07:19:51.718Z,100475.47
2019-05-13T07:20:27.403Z,100471.15
2019-05-13T07:21:03.306Z,100471.02
2019-05-13T07:21:41.615Z,100469.88
2019-05-13T07:22:23.537Z,100470.36
2019-05-13T07:23:01.622Z,100467.08
2019-05-13T07:23:37.090Z,100467.02
2019-05-13T07:24:13.106Z,100462.47
2019-05-13T07:24:49.066Z,100468.83
2019-05-13T07:25:26.728Z,100460.92
2019-05-13T07:26:03.064Z,100464.45
2019-05-13T07:26:38.938Z,100458.06
2019-05-13T07:27:14.854Z,100462.42
2019-05-13T07:27:51.504Z,100463.84
2019-05-13T07:28:27.815Z,100464.98
2019-05-13T07:29:04.379Z,100465.81
2019-05-13T07:29:42.346Z,100462.73
2019-05-13T07:30:24.759Z,100467.87
2019-05-13T07:31:04.421Z,100465.20
2019-05-13T07:31:42.211Z,100463.16
2019-05-13T07:32:18.379Z,100459.86
2019-05-13T07:32:58.037Z,100461.89
2019-05-13T07:33:38.694Z,100456.12
2019-05-13T07:34:17.622Z,100456.09
2019-05-13T07:34:56.435Z,100458.45
2019-05-13T07:35:37.929Z,100455.81
2019-05-13T07:36:12.731Z,100454.80
2019-05-13T07:36:51.178Z,100454.89
2019-05-13T07:37:26.533Z,100452.83
2019-05-13T07:38:02.637Z,100450.41
2019-05-13T07:38:38.494Z,100450.53
2019-05-13T07:39:14.370Z,100450.76
2019-05-13T07:39:53.023Z,100451.30